Terminal Aerodrome Forecast
Issued by NWS Wilmington, OH

Current Version | Previous Version | Text Only | Print | Product List | Glossary Off
Versions: 1 2 3 4 5 6 7 8 9 10 11 12 13 14 15 16 17 18 19 20 21 22 23 24 25 26 27 28 29 30 31

000
FTUS41 KILN 270800 AAA
TAFDAY
TAF AMD
KDAY 270900Z 2709/2806 04008KT 4SM BR VCSH OVC006
      TEMPO 2709/2713 OVC004
     FM271400 31010KT 6SM BR VCSH OVC012
     FM271600 33012G22KT P6SM VCSH BKN025
     FM272100 31014G24KT P6SM BKN035
     FM280200 30012G22KT P6SM SCT040=

USA.gov is the U.S. government's official web portal to all federal, state and local government web resources and services.